Time;durP1;ratioP1;P1;durP2;ratioP2;P2;SDS_P1;SDS_P2;PMS_P1;PMS_P2;Temp;Humidity;BMP_temperature;BMP_pressure;BME280_temperature;BME280_humidity;BME280_pressure;Samples;Min_cycle;Max_cycle;Signal;HPM_P1;HPM_P2
2023/06/28 00:00:48;;;;;;;7.18;3.30;;;;;;;;;;5098598;28;20055;-81
2023/06/28 00:03:14;;;;;;;10.85;3.63;;;;;;;;;;5077722;28;20106;-96
2023/06/28 00:05:40;;;;;;;12.60;3.58;;;;;;;;;;5069289;28;20553;-89
2023/06/28 00:08:06;;;;;;;13.55;3.55;;;;;;;;;;5073526;28;20087;-89
2023/06/28 00:10:32;;;;;;;9.75;3.67;;;;;;;;;;5074623;28;20056;-87
2023/06/28 00:12:58;;;;;;;11.52;3.70;;;;;;;;;;5058098;28;20055;-90
2023/06/28 00:15:24;;;;;;;11.80;3.97;;;;;;;;;;5073186;28;20037;-88
2023/06/28 00:17:50;;;;;;;12.57;3.97;;;;;;;;;;5072726;28;20044;-89
2023/06/28 00:20:16;;;;;;;11.02;4.25;;;;;;;;;;5078864;28;20048;-87
2023/06/28 00:22:43;;;;;;;13.18;4.35;;;;;;;;;;5082890;28;20443;-90
2023/06/28 00:25:09;;;;;;;12.63;4.18;;;;;;;;;;5071154;28;20058;-89
2023/06/28 00:27:35;;;;;;;12.50;4.20;;;;;;;;;;5070724;28;20035;-92
2023/06/28 00:30:01;;;;;;;16.35;4.30;;;;;;;;;;5088662;28;20044;-91
2023/06/28 00:32:27;;;;;;;12.27;4.43;;;;;;;;;;5070364;28;20531;-86
2023/06/28 00:34:54;;;;;;;14.00;4.00;;;;;;;;;;5070801;28;20173;-89
2023/06/28 00:37:20;;;;;;;10.10;4.45;;;;;;;;;;5080936;28;20067;-87
2023/06/28 00:39:46;;;;;;;12.30;3.97;;;;;;;;;;5095616;28;20109;-90
2023/06/28 00:42:12;;;;;;;9.07;3.95;;;;;;;;;;5079085;28;20159;-87
2023/06/28 00:44:38;;;;;;;12.65;4.38;;;;;;;;;;5072713;28;20123;-95
2023/06/28 00:47:04;;;;;;;12.45;4.60;;;;;;;;;;5073954;28;20091;-92
2023/06/28 00:49:32;;;;;;;12.23;4.80;;;;;;;;;;5085367;28;20060;-90
2023/06/28 00:51:58;;;;;;;12.50;4.63;;;;;;;;;;5088272;28;20098;-88
2023/06/28 00:54:24;;;;;;;14.93;4.53;;;;;;;;;;5071899;28;20051;-85
2023/06/28 00:56:50;;;;;;;13.43;4.50;;;;;;;;;;5074227;28;20048;-86
2023/06/28 00:59:16;;;;;;;11.70;4.20;;;;;;;;;;5074924;28;20450;-91
2023/06/28 01:01:43;;;;;;;13.00;4.72;;;;;;;;;;5070908;28;20096;-86
2023/06/28 01:04:09;;;;;;;11.68;4.55;;;;;;;;;;5074179;28;20407;-92
2023/06/28 01:06:36;;;;;;;8.85;4.30;;;;;;;;;;5075722;28;20044;-85
2023/06/28 01:09:10;;;;;;;9.52;4.18;;;;;;;;;;5076712;28;20848;-90
2023/06/28 01:11:36;;;;;;;10.32;4.18;;;;;;;;;;5093317;28;20062;-84
2023/06/28 01:14:02;;;;;;;11.15;4.70;;;;;;;;;;5072528;28;20044;-87
2023/06/28 01:16:28;;;;;;;11.00;4.90;;;;;;;;;;5069747;28;20075;-89
2023/06/28 01:18:54;;;;;;;10.18;4.20;;;;;;;;;;5068401;28;20048;-89
2023/06/28 01:21:22;;;;;;;12.23;4.63;;;;;;;;;;5070124;28;20047;-82
2023/06/28 01:23:49;;;;;;;14.15;4.97;;;;;;;;;;5052783;28;20040;-85
2023/06/28 01:26:16;;;;;;;11.43;5.07;;;;;;;;;;5068917;28;20123;-93
2023/06/28 01:28:43;;;;;;;12.48;4.95;;;;;;;;;;5069639;28;20125;-88
2023/06/28 01:31:10;;;;;;;10.52;4.80;;;;;;;;;;5069630;28;20487;-90
2023/06/28 01:33:37;;;;;;;13.90;4.90;;;;;;;;;;5066957;28;20048;-90
2023/06/28 01:36:03;;;;;;;12.32;5.35;;;;;;;;;;5087173;28;20503;-82
2023/06/28 01:38:30;;;;;;;11.80;5.10;;;;;;;;;;5071089;28;20056;-83
2023/06/28 01:40:57;;;;;;;14.38;5.38;;;;;;;;;;5069001;28;20217;-93
2023/06/28 01:43:23;;;;;;;15.38;5.70;;;;;;;;;;5073959;28;20036;-87
2023/06/28 01:45:52;;;;;;;11.73;4.78;;;;;;;;;;5069383;28;20072;-89
2023/06/28 01:48:18;;;;;;;11.43;5.10;;;;;;;;;;5072617;28;20403;-91
2023/06/28 01:50:45;;;;;;;14.05;4.88;;;;;;;;;;5072688;28;20378;-86
2023/06/28 01:53:11;;;;;;;10.35;5.13;;;;;;;;;;5090589;28;20423;-81
2023/06/28 01:55:37;;;;;;;15.52;5.72;;;;;;;;;;5071775;28;20276;-91
2023/06/28 01:58:03;;;;;;;9.65;4.90;;;;;;;;;;5071802;28;20047;-80
2023/06/28 02:00:29;;;;;;;16.08;5.35;;;;;;;;;;5073553;28;20032;-94
2023/06/28 02:02:56;;;;;;;12.35;5.28;;;;;;;;;;5078285;28;20043;-84
2023/06/28 02:05:22;;;;;;;12.68;5.43;;;;;;;;;;5068467;28;20510;-94
2023/06/28 02:07:48;;;;;;;13.77;5.38;;;;;;;;;;5087856;28;20189;-88
2023/06/28 02:10:14;;;;;;;12.45;5.65;;;;;;;;;;5073363;28;20052;-81
2023/06/28 02:12:40;;;;;;;12.30;5.68;;;;;;;;;;5080951;28;20032;-89
2023/06/28 02:15:06;;;;;;;15.00;5.50;;;;;;;;;;5061199;28;20131;-87
2023/06/28 02:17:32;;;;;;;12.15;6.10;;;;;;;;;;5059955;28;20190;-91
2023/06/28 02:19:58;;;;;;;11.18;5.47;;;;;;;;;;5057277;28;20744;-80
2023/06/28 02:22:26;;;;;;;13.52;5.32;;;;;;;;;;5058589;28;21082;-84
2023/06/28 02:24:51;;;;;;;14.55;5.70;;;;;;;;;;5071008;28;20079;-93
2023/06/28 02:27:17;;;;;;;15.75;6.22;;;;;;;;;;5070006;28;20472;-90
2023/06/28 02:29:43;;;;;;;11.10;5.78;;;;;;;;;;5063111;28;20048;-82
2023/06/28 02:32:10;;;;;;;11.18;5.70;;;;;;;;;;5065218;28;20873;-83
2023/06/28 02:34:37;;;;;;;14.40;5.90;;;;;;;;;;5053835;28;20048;-91
2023/06/28 02:37:03;;;;;;;15.38;5.90;;;;;;;;;;5056793;28;20358;-93
2023/06/28 02:39:29;;;;;;;12.68;5.65;;;;;;;;;;5037761;28;20063;-93
2023/06/28 02:41:55;;;;;;;13.68;5.97;;;;;;;;;;5078582;28;20437;-95
2023/06/28 02:44:21;;;;;;;10.98;5.57;;;;;;;;;;5057947;28;20040;-85
2023/06/28 02:46:47;;;;;;;12.23;5.85;;;;;;;;;;5055657;28;20036;-83
2023/06/28 02:49:13;;;;;;;13.32;5.85;;;;;;;;;;5077487;28;20035;-84
2023/06/28 02:51:39;;;;;;;15.98;6.07;;;;;;;;;;5057873;28;20083;-82
2023/06/28 02:54:05;;;;;;;10.32;5.70;;;;;;;;;;5056671;28;20118;-81
2023/06/28 02:56:31;;;;;;;11.15;5.38;;;;;;;;;;5076523;28;20040;-80
2023/06/28 02:58:56;;;;;;;16.25;5.85;;;;;;;;;;5058916;28;20075;-80
2023/06/28 03:01:25;;;;;;;12.52;6.30;;;;;;;;;;5061210;28;20035;-81
2023/06/28 03:03:51;;;;;;;12.18;5.90;;;;;;;;;;5058781;28;20130;-88
2023/06/28 03:06:17;;;;;;;9.98;5.68;;;;;;;;;;5062667;28;20044;-80
2023/06/28 03:08:43;;;;;;;11.93;5.68;;;;;;;;;;5079463;28;20110;-85
2023/06/28 03:11:09;;;;;;;13.55;6.00;;;;;;;;;;5060149;28;20054;-85
2023/06/28 03:13:35;;;;;;;13.73;6.38;;;;;;;;;;5064924;28;20047;-81
2023/06/28 03:16:01;;;;;;;14.30;6.07;;;;;;;;;;5064272;28;20079;-84
2023/06/28 03:18:27;;;;;;;13.30;6.63;;;;;;;;;;5064991;28;20079;-85
2023/06/28 03:20:53;;;;;;;12.27;5.88;;;;;;;;;;5063765;28;20048;-85
2023/06/28 03:23:19;;;;;;;13.27;6.32;;;;;;;;;;5082217;28;20057;-81
2023/06/28 03:25:45;;;;;;;10.48;6.43;;;;;;;;;;5061224;28;20048;-79
2023/06/28 03:28:12;;;;;;;14.40;6.30;;;;;;;;;;5066055;28;20047;-79
2023/06/28 03:30:38;;;;;;;13.60;6.50;;;;;;;;;;5068388;28;20085;-86
2023/06/28 03:33:04;;;;;;;14.75;6.35;;;;;;;;;;5076158;28;20468;-80
2023/06/28 03:35:30;;;;;;;12.10;6.13;;;;;;;;;;5060857;28;20047;-87
2023/06/28 03:37:56;;;;;;;15.38;6.72;;;;;;;;;;5077346;28;20071;-84
2023/06/28 03:40:23;;;;;;;13.52;6.88;;;;;;;;;;5073616;28;20465;-80
2023/06/28 03:42:49;;;;;;;12.60;6.47;;;;;;;;;;5073686;28;20055;-84
2023/06/28 03:45:18;;;;;;;16.48;6.68;;;;;;;;;;5088040;28;20556;-88
2023/06/28 03:47:44;;;;;;;11.98;6.55;;;;;;;;;;5081382;28;20135;-87
2023/06/28 03:50:10;;;;;;;11.40;6.60;;;;;;;;;;5087435;28;20143;-88
2023/06/28 03:52:36;;;;;;;15.25;7.00;;;;;;;;;;5065810;28;20032;-86
2023/06/28 03:55:03;;;;;;;15.85;7.32;;;;;;;;;;5086418;28;20040;-84
2023/06/28 03:57:29;;;;;;;12.80;6.53;;;;;;;;;;5063682;28;20076;-80
2023/06/28 03:59:55;;;;;;;12.23;6.18;;;;;;;;;;5067771;28;20063;-89
2023/06/28 04:02:21;;;;;;;12.98;6.75;;;;;;;;;;5067031;28;20048;-91
2023/06/28 04:04:47;;;;;;;13.57;6.47;;;;;;;;;;5083041;28;20050;-81
2023/06/28 04:07:13;;;;;;;15.02;6.85;;;;;;;;;;5069111;28;20130;-87
2023/06/28 04:09:41;;;;;;;11.90;6.30;;;;;;;;;;5085102;28;20036;-80
2023/06/28 04:12:07;;;;;;;11.10;6.40;;;;;;;;;;5084020;28;20059;-79
2023/06/28 04:14:33;;;;;;;15.98;6.78;;;;;;;;;;5063677;28;20044;-92
2023/06/28 04:16:59;;;;;;;14.52;6.53;;;;;;;;;;5064579;28;20051;-83
2023/06/28 04:19:25;;;;;;;15.50;6.68;;;;;;;;;;5049365;28;20048;-94
2023/06/28 04:21:51;;;;;;;12.63;6.07;;;;;;;;;;5049985;28;20127;-92
2023/06/28 04:24:17;;;;;;;13.77;6.72;;;;;;;;;;5066225;28;20058;-83
2023/06/28 04:26:43;;;;;;;10.73;5.97;;;;;;;;;;5065917;28;20067;-80
2023/06/28 04:29:09;;;;;;;16.23;6.60;;;;;;;;;;5085275;28;20058;-86
2023/06/28 04:31:35;;;;;;;12.38;6.50;;;;;;;;;;5073541;28;20044;-87
2023/06/28 04:34:01;;;;;;;11.50;5.70;;;;;;;;;;5066817;28;20044;-82
2023/06/28 04:36:27;;;;;;;13.55;5.90;;;;;;;;;;5065967;28;20123;-89
2023/06/28 04:38:54;;;;;;;13.07;6.15;;;;;;;;;;5083384;28;20119;-82
2023/06/28 04:41:25;;;;;;;15.25;5.70;;;;;;;;;;5063636;28;20052;-80
2023/06/28 04:43:54;;;;;;;10.75;5.82;;;;;;;;;;5066616;28;20054;-79
2023/06/28 04:46:20;;;;;;;18.40;6.22;;;;;;;;;;5065594;28;20500;-79
2023/06/28 04:48:46;;;;;;;11.10;5.50;;;;;;;;;;5066419;28;20142;-87
2023/06/28 04:51:12;;;;;;;10.68;5.60;;;;;;;;;;5083249;28;20644;-79
2023/06/28 04:53:38;;;;;;;15.30;5.70;;;;;;;;;;5082227;28;20044;-95
2023/06/28 04:56:05;;;;;;;14.48;5.45;;;;;;;;;;5066282;28;20054;-84
2023/06/28 04:58:33;;;;;;;11.30;5.50;;;;;;;;;;5065211;28;20462;-87
2023/06/28 05:00:59;;;;;;;11.00;5.07;;;;;;;;;;5063418;28;20046;-78
2023/06/28 05:03:27;;;;;;;13.35;4.82;;;;;;;;;;5049042;28;20305;-83
2023/06/28 05:05:56;;;;;;;10.88;5.60;;;;;;;;;;5081207;28;20507;-91
2023/06/28 05:08:22;;;;;;;10.25;5.25;;;;;;;;;;5053137;28;20329;-82
2023/06/28 05:10:48;;;;;;;11.77;4.85;;;;;;;;;;5061989;28;20495;-88
2023/06/28 05:13:14;;;;;;;13.85;5.43;;;;;;;;;;5064454;28;20051;-89
2023/06/28 05:15:40;;;;;;;12.55;5.50;;;;;;;;;;5066352;28;20063;-85
2023/06/28 05:18:06;;;;;;;10.82;4.65;;;;;;;;;;5065082;28;20053;-81
2023/06/28 05:20:33;;;;;;;7.70;4.70;;;;;;;;;;5063732;28;20403;-86
2023/06/28 05:23:09;;;;;;;12.48;5.03;;;;;;;;;;5045857;28;20090;-80
2023/06/28 05:25:35;;;;;;;10.43;5.03;;;;;;;;;;5065617;28;20056;-81
2023/06/28 05:28:01;;;;;;;9.45;4.53;;;;;;;;;;5064326;28;20043;-85
2023/06/28 05:30:27;;;;;;;11.07;4.80;;;;;;;;;;5064678;28;20089;-83
2023/06/28 05:32:53;;;;;;;9.80;4.90;;;;;;;;;;5068537;28;20123;-80
2023/06/28 05:35:19;;;;;;;10.68;5.13;;;;;;;;;;5084049;28;20146;-86
2023/06/28 05:37:45;;;;;;;14.13;5.18;;;;;;;;;;5068981;28;20706;-81
2023/06/28 05:40:11;;;;;;;8.15;4.40;;;;;;;;;;5061753;28;20035;-87
2023/06/28 05:42:37;;;;;;;10.35;4.95;;;;;;;;;;5047921;28;20067;-79
2023/06/28 05:45:03;;;;;;;10.48;4.55;;;;;;;;;;5065255;28;20160;-80
2023/06/28 05:47:29;;;;;;;11.25;5.05;;;;;;;;;;5064351;28;20055;-80
2023/06/28 05:49:55;;;;;;;9.07;4.57;;;;;;;;;;5063351;28;20074;-79
2023/06/28 05:52:21;;;;;;;6.68;4.07;;;;;;;;;;5066994;28;20090;-79
2023/06/28 05:54:47;;;;;;;10.48;3.95;;;;;;;;;;5084806;28;20059;-80
2023/06/28 05:57:13;;;;;;;6.95;3.60;;;;;;;;;;5066209;28;20059;-79
2023/06/28 05:59:39;;;;;;;8.98;4.20;;;;;;;;;;5065412;28;20044;-80
2023/06/28 06:02:05;;;;;;;5.93;3.40;;;;;;;;;;5059151;28;20040;-85
2023/06/28 06:04:31;;;;;;;7.18;3.90;;;;;;;;;;5049159;28;20047;-85
2023/06/28 06:06:57;;;;;;;8.05;3.88;;;;;;;;;;5064024;28;20044;-79
2023/06/28 06:09:23;;;;;;;9.93;4.35;;;;;;;;;;5060225;28;20064;-80
2023/06/28 06:11:49;;;;;;;10.43;3.80;;;;;;;;;;5064978;28;20032;-79
2023/06/28 06:14:15;;;;;;;10.40;4.03;;;;;;;;;;5061955;28;20944;-83
2023/06/28 06:16:41;;;;;;;8.60;3.72;;;;;;;;;;5059647;28;20051;-87
2023/06/28 06:19:07;;;;;;;9.25;4.25;;;;;;;;;;5062585;28;20744;-80
2023/06/28 06:21:33;;;;;;;8.20;4.38;;;;;;;;;;5062356;28;20130;-83
2023/06/28 06:24:01;;;;;;;9.77;4.43;;;;;;;;;;5078370;28;20380;-80
2023/06/28 06:26:27;;;;;;;10.47;4.70;;;;;;;;;;5027888;28;20051;-78
2023/06/28 06:28:54;;;;;;;11.38;4.90;;;;;;;;;;5046634;28;20295;-89
2023/06/28 06:31:54;;;;;;;12.18;4.55;;;;;;;;;;5046614;28;20056;-84
2023/06/28 06:34:20;;;;;;;7.93;4.53;;;;;;;;;;5057660;28;20046;-79
2023/06/28 06:36:50;;;;;;;11.98;5.13;;;;;;;;;;5073350;28;20105;-86
2023/06/28 06:39:20;;;;;;;9.95;5.32;;;;;;;;;;5067735;28;21045;-88
2023/06/28 06:41:46;;;;;;;11.00;4.90;;;;;;;;;;5040401;28;20073;-90
2023/06/28 06:44:12;;;;;;;7.40;5.28;;;;;;;;;;5055771;28;20135;-78
2023/06/28 06:46:38;;;;;;;8.85;5.13;;;;;;;;;;5050785;28;20462;-78
2023/06/28 06:49:04;;;;;;;13.80;5.93;;;;;;;;;;5062252;28;20047;-79
2023/06/28 06:51:30;;;;;;;9.85;6.00;;;;;;;;;;5073304;28;20052;-81
2023/06/28 06:53:56;;;;;;;10.88;5.72;;;;;;;;;;5070339;28;20048;-81
2023/06/28 06:56:22;;;;;;;14.13;6.22;;;;;;;;;;5074620;28;20044;-80
2023/06/28 06:58:49;;;;;;;13.60;6.00;;;;;;;;;;5076153;28;20044;-84
2023/06/28 07:01:15;;;;;;;11.60;6.20;;;;;;;;;;5075499;28;20032;-79
2023/06/28 07:03:41;;;;;;;13.73;6.22;;;;;;;;;;5038485;28;20515;-91
2023/06/28 07:06:07;;;;;;;11.60;5.82;;;;;;;;;;5062557;28;20075;-81
2023/06/28 07:08:34;;;;;;;13.68;6.18;;;;;;;;;;5038762;28;20037;-79
2023/06/28 07:11:00;;;;;;;11.75;6.13;;;;;;;;;;5059956;28;21970;-79
2023/06/28 07:13:26;;;;;;;9.15;5.35;;;;;;;;;;5066083;28;20032;-80
2023/06/28 07:15:52;;;;;;;11.88;6.22;;;;;;;;;;5045415;28;20080;-80
2023/06/28 07:18:18;;;;;;;12.13;5.97;;;;;;;;;;5044154;28;20047;-82
2023/06/28 07:20:44;;;;;;;13.00;6.22;;;;;;;;;;5066944;28;20490;-80
2023/06/28 07:23:10;;;;;;;12.98;6.22;;;;;;;;;;5053781;28;20059;-81
2023/06/28 07:25:38;;;;;;;11.63;6.40;;;;;;;;;;5054105;28;20055;-79
2023/06/28 07:28:04;;;;;;;16.95;6.95;;;;;;;;;;5044824;28;20042;-80
2023/06/28 07:30:30;;;;;;;15.80;6.90;;;;;;;;;;5062911;28;20039;-81
2023/06/28 07:32:57;;;;;;;16.27;6.85;;;;;;;;;;5067023;28;20035;-81
2023/06/28 07:35:23;;;;;;;14.88;6.10;;;;;;;;;;5044445;28;20071;-80
2023/06/28 07:37:49;;;;;;;15.88;7.05;;;;;;;;;;5063980;28;20178;-82
2023/06/28 07:40:16;;;;;;;17.80;7.25;;;;;;;;;;5062266;28;20548;-89
2023/06/28 07:42:42;;;;;;;16.58;7.30;;;;;;;;;;5062949;28;20126;-89
2023/06/28 07:45:08;;;;;;;15.82;7.72;;;;;;;;;;5062827;28;20167;-90
2023/06/28 07:47:36;;;;;;;14.65;7.10;;;;;;;;;;5063327;28;20130;-82
2023/06/28 07:50:02;;;;;;;13.68;7.00;;;;;;;;;;5061795;28;20039;-80
2023/06/28 07:52:28;;;;;;;14.30;7.00;;;;;;;;;;5064734;28;20052;-79
2023/06/28 07:54:54;;;;;;;13.07;7.03;;;;;;;;;;5058077;28;20044;-82
2023/06/28 07:57:20;;;;;;;13.88;7.25;;;;;;;;;;5051538;28;20103;-90
2023/06/28 07:59:46;;;;;;;14.40;7.13;;;;;;;;;;5063395;28;20482;-80
2023/06/28 08:02:12;;;;;;;15.30;7.57;;;;;;;;;;5044760;28;20059;-79
2023/06/28 08:04:38;;;;;;;18.30;7.97;;;;;;;;;;5079706;28;20602;-78
2023/06/28 08:07:04;;;;;;;14.90;7.22;;;;;;;;;;5080661;28;20043;-78
2023/06/28 08:09:30;;;;;;;15.93;7.80;;;;;;;;;;5061820;28;20109;-85
2023/06/28 08:11:56;;;;;;;15.90;7.88;;;;;;;;;;5061342;28;20048;-83
2023/06/28 08:14:22;;;;;;;15.85;8.02;;;;;;;;;;5060154;28;20561;-83
2023/06/28 08:16:48;;;;;;;14.00;8.65;;;;;;;;;;5071350;28;20681;-82
2023/06/28 08:19:15;;;;;;;15.05;8.35;;;;;;;;;;5061541;28;20469;-82
2023/06/28 08:21:42;;;;;;;11.93;7.80;;;;;;;;;;5071861;28;20404;-81
2023/06/28 08:24:08;;;;;;;14.10;7.95;;;;;;;;;;5058921;28;20411;-83
2023/06/28 08:26:36;;;;;;;15.60;7.35;;;;;;;;;;5062948;28;20049;-81
2023/06/28 08:29:02;;;;;;;14.95;7.93;;;;;;;;;;5062126;28;20415;-83
2023/06/28 08:31:29;;;;;;;13.10;8.25;;;;;;;;;;5063245;28;20055;-83
2023/06/28 08:33:56;;;;;;;16.00;8.52;;;;;;;;;;5056178;28;20052;-83
2023/06/28 08:36:24;;;;;;;17.63;8.43;;;;;;;;;;5046942;28;20086;-82
2023/06/28 08:38:50;;;;;;;14.02;7.97;;;;;;;;;;5061188;28;20516;-79
2023/06/28 08:41:18;;;;;;;14.73;8.00;;;;;;;;;;5064825;28;20083;-80
2023/06/28 08:43:45;;;;;;;16.60;8.33;;;;;;;;;;5060691;28;20082;-88
2023/06/28 08:46:12;;;;;;;15.55;7.95;;;;;;;;;;5062012;28;20040;-86
2023/06/28 08:48:38;;;;;;;14.38;7.72;;;;;;;;;;5064504;28;20158;-88
2023/06/28 08:51:04;;;;;;;11.98;7.63;;;;;;;;;;5060853;28;20043;-86
2023/06/28 08:53:30;;;;;;;12.88;8.00;;;;;;;;;;5064519;28;20036;-78
2023/06/28 08:55:59;;;;;;;14.15;8.13;;;;;;;;;;5069287;28;20074;-81
2023/06/28 08:58:26;;;;;;;13.27;8.55;;;;;;;;;;5048109;28;20040;-83
2023/06/28 09:00:52;;;;;;;12.07;7.85;;;;;;;;;;5059781;28;20411;-81
2023/06/28 09:03:18;;;;;;;13.30;7.95;;;;;;;;;;5060658;28;20506;-86
2023/06/28 09:05:45;;;;;;;13.43;8.48;;;;;;;;;;5055571;28;20074;-84
2023/06/28 09:08:11;;;;;;;13.00;8.52;;;;;;;;;;5055168;28;20052;-85
2023/06/28 09:10:39;;;;;;;12.45;8.20;;;;;;;;;;5051889;28;20054;-86
2023/06/28 09:13:05;;;;;;;10.63;8.32;;;;;;;;;;5063000;28;20038;-82
2023/06/28 09:15:34;;;;;;;14.05;8.52;;;;;;;;;;5058348;28;20044;-84
2023/06/28 09:18:00;;;;;;;11.20;7.68;;;;;;;;;;5056340;28;20048;-84
2023/06/28 09:20:26;;;;;;;10.77;8.32;;;;;;;;;;5061840;28;20407;-88
2023/06/28 09:22:59;;;;;;;10.25;7.72;;;;;;;;;;5060595;28;20036;-88
2023/06/28 09:25:27;;;;;;;14.80;8.35;;;;;;;;;;5053796;28;20665;-88
2023/06/28 09:27:54;;;;;;;12.07;9.00;;;;;;;;;;5079029;28;20040;-83
2023/06/28 09:30:20;;;;;;;12.90;8.25;;;;;;;;;;5058866;28;20051;-84
2023/06/28 09:32:50;;;;;;;13.98;9.05;;;;;;;;;;5052983;28;20056;-81
2023/06/28 09:35:16;;;;;;;16.30;9.65;;;;;;;;;;5059645;28;20389;-81
2023/06/28 09:37:43;;;;;;;11.93;8.52;;;;;;;;;;5058020;28;20048;-83
2023/06/28 09:40:09;;;;;;;13.75;9.68;;;;;;;;;;5052736;28;20039;-82
2023/06/28 09:42:45;;;;;;;14.52;9.35;;;;;;;;;;5049771;28;20496;-81
2023/06/28 09:45:22;;;;;;;13.85;9.68;;;;;;;;;;5059495;28;20936;-86
2023/06/28 09:47:54;;;;;;;15.00;10.82;;;;;;;;;;5060606;28;20048;-81
2023/06/28 09:50:20;;;;;;;13.90;10.15;;;;;;;;;;5072506;28;20495;-80
2023/06/28 09:52:46;;;;;;;16.17;10.70;;;;;;;;;;5078068;28;20043;-80
2023/06/28 09:55:12;;;;;;;16.55;11.10;;;;;;;;;;5078493;28;20496;-81
2023/06/28 09:57:39;;;;;;;16.25;10.88;;;;;;;;;;5061911;28;20040;-80
2023/06/28 10:00:05;;;;;;;17.48;11.10;;;;;;;;;;5061862;28;20052;-84
2023/06/28 10:02:31;;;;;;;20.52;12.70;;;;;;;;;;5057938;28;20052;-81
2023/06/28 10:04:58;;;;;;;20.00;12.80;;;;;;;;;;5055532;28;20045;-83
2023/06/28 10:07:24;;;;;;;17.13;12.63;;;;;;;;;;5073170;28;20040;-86
2023/06/28 10:09:50;;;;;;;18.10;13.55;;;;;;;;;;5073899;28;20067;-81
2023/06/28 10:12:19;;;;;;;19.52;13.68;;;;;;;;;;5056170;28;20916;-78
2023/06/28 10:14:45;;;;;;;22.05;14.38;;;;;;;;;;5055783;28;20059;-88
2023/06/28 10:17:12;;;;;;;22.60;13.98;;;;;;;;;;5056159;28;20898;-81
2023/06/28 10:19:38;;;;;;;21.67;14.27;;;;;;;;;;5057819;28;20090;-85
2023/06/28 10:22:05;;;;;;;21.02;14.93;;;;;;;;;;5070824;28;20150;-81
2023/06/28 10:24:32;;;;;;;20.80;14.93;;;;;;;;;;5055412;28;20072;-84
2023/06/28 10:27:02;;;;;;;20.30;15.18;;;;;;;;;;5057178;28;20123;-82
2023/06/28 10:29:29;;;;;;;24.27;16.85;;;;;;;;;;5057526;28;20055;-85
2023/06/28 10:31:55;;;;;;;24.10;16.63;;;;;;;;;;5061384;28;20052;-85
2023/06/28 10:34:22;;;;;;;21.50;16.30;;;;;;;;;;5078719;28;20043;-86
2023/06/28 10:36:48;;;;;;;20.77;15.38;;;;;;;;;;5069156;28;20168;-82
2023/06/28 10:39:15;;;;;;;21.38;16.15;;;;;;;;;;5075348;28;20082;-87
2023/06/28 10:41:41;;;;;;;22.85;16.33;;;;;;;;;;5058639;28;20079;-81
2023/06/28 10:44:07;;;;;;;25.08;16.35;;;;;;;;;;5053866;28;20105;-81
2023/06/28 10:46:34;;;;;;;24.48;15.68;;;;;;;;;;5055451;28;20036;-85
2023/06/28 10:49:00;;;;;;;23.77;16.23;;;;;;;;;;5057162;28;20044;-86
2023/06/28 10:51:34;;;;;;;21.13;15.63;;;;;;;;;;5052582;28;20055;-87
2023/06/28 10:54:13;;;;;;;21.70;15.10;;;;;;;;;;5061212;28;20048;-85
2023/06/28 10:56:43;;;;;;;25.75;16.35;;;;;;;;;;5064672;28;20153;-82
2023/06/28 10:59:09;;;;;;;24.05;15.57;;;;;;;;;;5059947;28;20055;-87
2023/06/28 11:01:36;;;;;;;22.45;15.25;;;;;;;;;;5079428;28;20044;-81
2023/06/28 11:04:11;;;;;;;22.00;15.25;;;;;;;;;;5060313;28;20076;-79
2023/06/28 11:06:38;;;;;;;21.60;14.50;;;;;;;;;;5059269;28;20096;-82
2023/06/28 11:09:13;;;;;;;23.45;14.60;;;;;;;;;;5078313;28;20039;-81
2023/06/28 11:11:41;;;;;;;18.85;13.40;;;;;;;;;;5060347;28;20048;-79
2023/06/28 11:14:25;;;;;;;21.55;14.25;;;;;;;;;;5054382;28;20043;-80
2023/06/28 11:16:51;;;;;;;24.52;14.80;;;;;;;;;;5062226;28;20083;-80
2023/06/28 11:19:19;;;;;;;20.55;14.82;;;;;;;;;;5042204;28;20060;-88
2023/06/28 11:22:03;;;;;;;23.23;14.50;;;;;;;;;;5045909;28;20058;-87
2023/06/28 11:24:29;;;;;;;18.92;14.02;;;;;;;;;;5058905;28;20047;-81
2023/06/28 11:26:55;;;;;;;21.73;14.07;;;;;;;;;;5074243;28;20044;-83
2023/06/28 11:29:22;;;;;;;21.02;14.30;;;;;;;;;;5061256;28;20055;-85
2023/06/28 11:31:51;;;;;;;20.02;13.73;;;;;;;;;;5056241;28;20044;-86
2023/06/28 11:34:18;;;;;;;20.75;13.95;;;;;;;;;;5070708;28;20115;-83
2023/06/28 11:36:44;;;;;;;19.67;13.25;;;;;;;;;;5053660;28;20055;-87
2023/06/28 11:39:14;;;;;;;20.05;13.15;;;;;;;;;;5074646;28;21441;-86
2023/06/28 11:41:41;;;;;;;16.95;12.63;;;;;;;;;;5033894;28;20092;-88
2023/06/28 11:44:07;;;;;;;17.73;13.45;;;;;;;;;;5054637;28;20044;-80
2023/06/28 11:46:34;;;;;;;19.52;13.73;;;;;;;;;;5074535;28;20051;-86
2023/06/28 11:49:00;;;;;;;19.67;15.02;;;;;;;;;;5036248;28;20061;-84
2023/06/28 11:51:26;;;;;;;16.55;13.48;;;;;;;;;;5084004;28;20158;-84
2023/06/28 11:53:55;;;;;;;21.35;14.65;;;;;;;;;;5080518;28;20139;-83
2023/06/28 11:56:41;;;;;;;20.42;14.73;;;;;;;;;;5063052;28;20040;-82
2023/06/28 11:59:13;;;;;;;20.67;14.55;;;;;;;;;;5067746;28;20048;-87
2023/06/28 12:01:39;;;;;;;19.58;14.48;;;;;;;;;;5060817;28;20048;-85
2023/06/28 12:04:21;;;;;;;21.05;14.95;;;;;;;;;;5051098;28;20044;-85
2023/06/28 12:06:48;;;;;;;18.60;13.65;;;;;;;;;;5080835;28;20047;-83
2023/06/28 12:09:22;;;;;;;16.48;13.60;;;;;;;;;;5081419;28;20071;-88
2023/06/28 12:11:58;;;;;;;17.73;13.27;;;;;;;;;;5081094;28;20162;-82
2023/06/28 12:14:24;;;;;;;19.15;14.30;;;;;;;;;;5057215;28;20036;-85
2023/06/28 12:16:58;;;;;;;16.10;13.45;;;;;;;;;;5075095;28;20130;-86
2023/06/28 12:19:27;;;;;;;19.30;14.23;;;;;;;;;;5073873;28;20047;-83
2023/06/28 12:21:56;;;;;;;18.98;14.68;;;;;;;;;;5062987;28;20845;-82
2023/06/28 12:24:24;;;;;;;19.80;14.70;;;;;;;;;;5057343;28;20055;-79
2023/06/28 12:26:54;;;;;;;18.45;14.18;;;;;;;;;;5077328;28;20040;-85
2023/06/28 12:29:20;;;;;;;16.23;14.52;;;;;;;;;;5060833;28;20265;-82
2023/06/28 12:31:47;;;;;;;17.73;13.20;;;;;;;;;;5072496;28;20043;-83
2023/06/28 12:34:14;;;;;;;19.77;13.30;;;;;;;;;;5077610;28;20047;-80
2023/06/28 12:36:40;;;;;;;16.35;12.93;;;;;;;;;;5073425;28;20048;-84
2023/06/28 12:39:07;;;;;;;16.90;13.43;;;;;;;;;;5075015;28;20071;-83
2023/06/28 12:41:33;;;;;;;14.15;12.13;;;;;;;;;;5073964;28;20047;-82
2023/06/28 12:43:59;;;;;;;17.90;13.93;;;;;;;;;;5057307;28;20657;-78
2023/06/28 12:46:28;;;;;;;15.25;13.32;;;;;;;;;;5054930;28;20054;-81
2023/06/28 12:48:55;;;;;;;15.68;12.85;;;;;;;;;;5057657;28;20052;-79
2023/06/28 12:51:22;;;;;;;16.65;13.50;;;;;;;;;;5058579;28;20043;-80
2023/06/28 12:53:48;;;;;;;17.30;14.48;;;;;;;;;;5056697;28;20044;-84
2023/06/28 12:56:14;;;;;;;17.10;13.70;;;;;;;;;;5060158;28;20483;-83
2023/06/28 12:58:40;;;;;;;17.33;15.43;;;;;;;;;;5072395;28;20040;-80
2023/06/28 13:01:06;;;;;;;20.20;15.27;;;;;;;;;;5074837;28;20500;-82
2023/06/28 13:03:33;;;;;;;17.45;15.35;;;;;;;;;;5076711;28;20044;-78
2023/06/28 13:05:59;;;;;;;20.70;16.30;;;;;;;;;;5056238;28;20040;-80
2023/06/28 13:08:29;;;;;;;17.80;15.80;;;;;;;;;;5056828;28;20609;-81
2023/06/28 13:10:55;;;;;;;20.15;17.10;;;;;;;;;;5054579;28;20048;-83
2023/06/28 13:13:21;;;;;;;20.40;16.15;;;;;;;;;;5057513;28;20613;-82
2023/06/28 13:15:47;;;;;;;23.95;16.67;;;;;;;;;;5058128;28;20577;-82
2023/06/28 13:18:13;;;;;;;19.77;15.23;;;;;;;;;;5073924;28;20139;-80
2023/06/28 13:20:39;;;;;;;21.73;17.00;;;;;;;;;;5066438;28;20390;-81
2023/06/28 13:23:05;;;;;;;20.80;17.17;;;;;;;;;;5049297;28;20035;-81
2023/06/28 13:25:31;;;;;;;22.38;16.55;;;;;;;;;;5050130;28;20544;-79
2023/06/28 13:27:57;;;;;;;22.35;16.83;;;;;;;;;;5058732;28;20083;-82
2023/06/28 13:30:23;;;;;;;21.88;17.05;;;;;;;;;;5056607;28;20055;-78
2023/06/28 13:32:49;;;;;;;21.67;17.63;;;;;;;;;;5058497;28;20508;-87
2023/06/28 13:35:16;;;;;;;20.40;16.02;;;;;;;;;;5067464;28;20828;-83
2023/06/28 13:37:43;;;;;;;21.80;16.67;;;;;;;;;;5039445;28;20940;-84
2023/06/28 13:40:09;;;;;;;19.98;17.27;;;;;;;;;;5045685;28;20484;-80
2023/06/28 13:42:35;;;;;;;20.60;17.42;;;;;;;;;;5043240;28;20032;-86
2023/06/28 13:45:01;;;;;;;21.42;18.25;;;;;;;;;;5041545;28;20042;-84
2023/06/28 13:47:27;;;;;;;20.52;17.35;;;;;;;;;;5065485;28;20484;-85
2023/06/28 13:49:53;;;;;;;21.55;17.90;;;;;;;;;;5039389;28;20040;-84
2023/06/28 13:52:19;;;;;;;22.08;18.48;;;;;;;;;;5039730;28;20485;-84
2023/06/28 13:54:45;;;;;;;20.02;17.33;;;;;;;;;;5046727;28;20059;-83
2023/06/28 13:57:11;;;;;;;19.88;17.45;;;;;;;;;;5039747;28;20045;-84
2023/06/28 13:59:38;;;;;;;23.98;17.30;;;;;;;;;;5041112;28;20067;-84
2023/06/28 14:02:04;;;;;;;23.13;17.55;;;;;;;;;;5051414;28;20510;-79
2023/06/28 14:04:30;;;;;;;22.50;18.15;;;;;;;;;;5038745;28;20044;-83
2023/06/28 14:06:56;;;;;;;24.15;20.15;;;;;;;;;;5063166;28;20044;-83
2023/06/28 14:09:22;;;;;;;30.73;21.92;;;;;;;;;;5058701;28;20045;-83
2023/06/28 14:11:48;;;;;;;27.10;19.98;;;;;;;;;;5043648;28;20055;-79
2023/06/28 14:14:14;;;;;;;28.63;21.20;;;;;;;;;;5047870;28;20542;-80
2023/06/28 14:16:40;;;;;;;30.23;21.27;;;;;;;;;;5048361;28;20692;-84
2023/06/28 14:19:06;;;;;;;27.55;20.55;;;;;;;;;;5066793;28;20100;-84
2023/06/28 14:21:32;;;;;;;26.58;21.10;;;;;;;;;;5075464;28;20527;-86
2023/06/28 14:23:58;;;;;;;28.02;20.98;;;;;;;;;;5055368;28;20044;-84